sensor_id;sensor_type;location;lat;lon;timestamp;P1;durP1;ratioP1;P2;durP2;ratioP2
72920;SDS011;61064;51.654;5.476;2024-02-14T00:00:36;5.97;;;2.10;;
72920;SDS011;61064;51.654;5.476;2024-02-14T00:03:01;5.93;;;2.10;;
72920;SDS011;61064;51.654;5.476;2024-02-14T00:05:27;5.95;;;2.20;;
72920;SDS011;61064;51.654;5.476;2024-02-14T00:07:56;7.03;;;2.20;;
72920;SDS011;61064;51.654;5.476;2024-02-14T00:10:21;6.32;;;1.83;;
72920;SDS011;61064;51.654;5.476;2024-02-14T00:12:47;6.87;;;2.10;;
72920;SDS011;61064;51.654;5.476;2024-02-14T00:15:13;6.80;;;2.10;;
72920;SDS011;61064;51.654;5.476;2024-02-14T00:17:39;5.70;;;2.03;;
72920;SDS011;61064;51.654;5.476;2024-02-14T00:20:04;6.57;;;2.10;;
72920;SDS011;61064;51.654;5.476;2024-02-14T00:22:30;7.03;;;2.28;;
72920;SDS011;61064;51.654;5.476;2024-02-14T00:24:56;6.95;;;2.40;;
72920;SDS011;61064;51.654;5.476;2024-02-14T00:27:25;7.97;;;2.50;;
72920;SDS011;61064;51.654;5.476;2024-02-14T00:29:51;9.18;;;2.33;;
72920;SDS011;61064;51.654;5.476;2024-02-14T00:32:18;7.10;;;2.28;;
72920;SDS011;61064;51.654;5.476;2024-02-14T00:34:44;6.90;;;2.20;;
72920;SDS011;61064;51.654;5.476;2024-02-14T00:37:13;6.28;;;2.30;;
72920;SDS011;61064;51.654;5.476;2024-02-14T00:39:38;7.53;;;2.40;;
72920;SDS011;61064;51.654;5.476;2024-02-14T00:42:04;8.20;;;2.55;;
72920;SDS011;61064;51.654;5.476;2024-02-14T00:44:29;8.67;;;2.47;;
72920;SDS011;61064;51.654;5.476;2024-02-14T00:46:58;6.10;;;2.40;;
72920;SDS011;61064;51.654;5.476;2024-02-14T00:49:27;8.93;;;2.30;;
72920;SDS011;61064;51.654;5.476;2024-02-14T00:51:53;6.63;;;2.60;;
72920;SDS011;61064;51.654;5.476;2024-02-14T00:54:18;6.50;;;2.40;;
72920;SDS011;61064;51.654;5.476;2024-02-14T00:56:44;7.80;;;2.40;;
72920;SDS011;61064;51.654;5.476;2024-02-14T00:59:09;8.33;;;2.67;;
72920;SDS011;61064;51.654;5.476;2024-02-14T01:01:35;6.87;;;2.53;;
72920;SDS011;61064;51.654;5.476;2024-02-14T01:04:00;8.17;;;2.53;;
72920;SDS011;61064;51.654;5.476;2024-02-14T01:06:26;6.93;;;2.60;;
72920;SDS011;61064;51.654;5.476;2024-02-14T01:08:51;8.70;;;2.77;;
72920;SDS011;61064;51.654;5.476;2024-02-14T01:11:17;7.60;;;3.03;;
72920;SDS011;61064;51.654;5.476;2024-02-14T01:13:42;9.83;;;3.20;;
72920;SDS011;61064;51.654;5.476;2024-02-14T01:16:08;7.57;;;3.13;;
72920;SDS011;61064;51.654;5.476;2024-02-14T01:18:33;9.67;;;3.07;;
72920;SDS011;61064;51.654;5.476;2024-02-14T01:20:58;7.60;;;2.90;;
72920;SDS011;61064;51.654;5.476;2024-02-14T01:23:25;9.55;;;2.90;;
72920;SDS011;61064;51.654;5.476;2024-02-14T01:25:51;7.80;;;3.10;;
72920;SDS011;61064;51.654;5.476;2024-02-14T01:28:19;8.33;;;3.20;;
72920;SDS011;61064;51.654;5.476;2024-02-14T01:30:45;9.05;;;2.97;;
72920;SDS011;61064;51.654;5.476;2024-02-14T01:33:10;7.23;;;2.93;;
72920;SDS011;61064;51.654;5.476;2024-02-14T01:35:35;6.57;;;2.70;;
72920;SDS011;61064;51.654;5.476;2024-02-14T01:38:01;11.10;;;3.33;;
72920;SDS011;61064;51.654;5.476;2024-02-14T01:40:28;9.82;;;2.72;;
72920;SDS011;61064;51.654;5.476;2024-02-14T01:42:56;9.55;;;2.70;;
72920;SDS011;61064;51.654;5.476;2024-02-14T01:45:21;7.85;;;2.65;;
72920;SDS011;61064;51.654;5.476;2024-02-14T01:47:50;9.47;;;2.80;;
72920;SDS011;61064;51.654;5.476;2024-02-14T01:50:19;8.30;;;2.60;;
72920;SDS011;61064;51.654;5.476;2024-02-14T01:52:53;8.48;;;3.15;;
72920;SDS011;61064;51.654;5.476;2024-02-14T01:55:20;10.00;;;2.93;;
72920;SDS011;61064;51.654;5.476;2024-02-14T01:57:46;8.32;;;2.60;;
72920;SDS011;61064;51.654;5.476;2024-02-14T02:00:13;9.60;;;3.00;;
72920;SDS011;61064;51.654;5.476;2024-02-14T02:02:43;6.95;;;2.80;;
72920;SDS011;61064;51.654;5.476;2024-02-14T02:05:09;7.30;;;3.20;;
72920;SDS011;61064;51.654;5.476;2024-02-14T02:07:34;9.68;;;2.90;;
72920;SDS011;61064;51.654;5.476;2024-02-14T02:10:01;8.20;;;3.10;;
72920;SDS011;61064;51.654;5.476;2024-02-14T02:12:27;7.23;;;2.80;;
72920;SDS011;61064;51.654;5.476;2024-02-14T02:14:53;7.43;;;2.88;;
72920;SDS011;61064;51.654;5.476;2024-02-14T02:17:18;7.17;;;3.00;;
72920;SDS011;61064;51.654;5.476;2024-02-14T02:19:44;8.60;;;3.20;;
72920;SDS011;61064;51.654;5.476;2024-02-14T02:22:09;9.23;;;2.53;;
72920;SDS011;61064;51.654;5.476;2024-02-14T02:24:35;6.20;;;2.80;;
72920;SDS011;61064;51.654;5.476;2024-02-14T02:27:01;12.90;;;3.20;;
72920;SDS011;61064;51.654;5.476;2024-02-14T02:29:26;11.50;;;3.33;;
72920;SDS011;61064;51.654;5.476;2024-02-14T02:31:55;8.25;;;3.13;;
72920;SDS011;61064;51.654;5.476;2024-02-14T02:34:20;7.90;;;2.97;;
72920;SDS011;61064;51.654;5.476;2024-02-14T02:36:46;10.23;;;3.53;;
72920;SDS011;61064;51.654;5.476;2024-02-14T02:39:14;9.67;;;3.37;;
72920;SDS011;61064;51.654;5.476;2024-02-14T02:41:39;8.73;;;3.10;;
72920;SDS011;61064;51.654;5.476;2024-02-14T02:44:05;7.87;;;2.93;;
72920;SDS011;61064;51.654;5.476;2024-02-14T02:46:31;7.77;;;2.70;;
72920;SDS011;61064;51.654;5.476;2024-02-14T02:48:59;7.10;;;2.95;;
72920;SDS011;61064;51.654;5.476;2024-02-14T02:51:25;8.88;;;3.17;;
72920;SDS011;61064;51.654;5.476;2024-02-14T02:53:50;7.73;;;3.10;;
72920;SDS011;61064;51.654;5.476;2024-02-14T02:56:17;8.00;;;3.30;;
72920;SDS011;61064;51.654;5.476;2024-02-14T02:58:43;10.07;;;3.25;;
72920;SDS011;61064;51.654;5.476;2024-02-14T03:01:09;7.17;;;2.93;;
72920;SDS011;61064;51.654;5.476;2024-02-14T03:03:36;8.02;;;3.38;;
72920;SDS011;61064;51.654;5.476;2024-02-14T03:06:03;10.85;;;3.92;;
72920;SDS011;61064;51.654;5.476;2024-02-14T03:08:32;9.30;;;3.50;;
72920;SDS011;61064;51.654;5.476;2024-02-14T03:11:05;8.40;;;3.50;;
72920;SDS011;61064;51.654;5.476;2024-02-14T03:13:31;8.30;;;3.20;;
72920;SDS011;61064;51.654;5.476;2024-02-14T03:15:57;8.23;;;3.65;;
72920;SDS011;61064;51.654;5.476;2024-02-14T03:18:23;11.77;;;3.25;;
72920;SDS011;61064;51.654;5.476;2024-02-14T03:20:49;8.63;;;3.63;;
72920;SDS011;61064;51.654;5.476;2024-02-14T03:23:19;9.55;;;3.33;;
72920;SDS011;61064;51.654;5.476;2024-02-14T03:25:44;7.70;;;3.08;;
72920;SDS011;61064;51.654;5.476;2024-02-14T03:28:09;8.30;;;3.40;;
72920;SDS011;61064;51.654;5.476;2024-02-14T03:30:38;8.47;;;3.07;;
72920;SDS011;61064;51.654;5.476;2024-02-14T03:33:06;10.63;;;3.40;;
72920;SDS011;61064;51.654;5.476;2024-02-14T03:35:33;7.68;;;3.35;;
72920;SDS011;61064;51.654;5.476;2024-02-14T03:37:59;9.27;;;3.40;;
72920;SDS011;61064;51.654;5.476;2024-02-14T03:40:26;8.00;;;3.20;;
72920;SDS011;61064;51.654;5.476;2024-02-14T03:42:51;10.95;;;3.47;;
72920;SDS011;61064;51.654;5.476;2024-02-14T03:45:18;9.43;;;3.40;;
72920;SDS011;61064;51.654;5.476;2024-02-14T03:47:46;8.82;;;3.42;;
72920;SDS011;61064;51.654;5.476;2024-02-14T03:50:12;9.63;;;3.60;;
72920;SDS011;61064;51.654;5.476;2024-02-14T03:52:37;7.37;;;3.40;;
72920;SDS011;61064;51.654;5.476;2024-02-14T03:55:03;7.40;;;3.27;;
72920;SDS011;61064;51.654;5.476;2024-02-14T03:57:31;12.68;;;3.75;;
72920;SDS011;61064;51.654;5.476;2024-02-14T03:59:59;8.40;;;3.03;;
72920;SDS011;61064;51.654;5.476;2024-02-14T04:02:27;9.43;;;3.50;;
72920;SDS011;61064;51.654;5.476;2024-02-14T04:04:53;8.77;;;3.53;;
72920;SDS011;61064;51.654;5.476;2024-02-14T04:07:18;12.00;;;4.20;;
72920;SDS011;61064;51.654;5.476;2024-02-14T04:09:47;11.45;;;3.85;;
72920;SDS011;61064;51.654;5.476;2024-02-14T04:12:12;9.10;;;3.80;;
72920;SDS011;61064;51.654;5.476;2024-02-14T04:14:38;9.32;;;3.80;;
72920;SDS011;61064;51.654;5.476;2024-02-14T04:17:04;11.97;;;3.93;;
72920;SDS011;61064;51.654;5.476;2024-02-14T04:19:29;11.13;;;3.72;;
72920;SDS011;61064;51.654;5.476;2024-02-14T04:21:55;10.57;;;4.00;;
72920;SDS011;61064;51.654;5.476;2024-02-14T04:24:22;8.35;;;3.40;;
72920;SDS011;61064;51.654;5.476;2024-02-14T04:26:48;11.87;;;3.67;;
72920;SDS011;61064;51.654;5.476;2024-02-14T04:29:14;13.52;;;3.40;;
72920;SDS011;61064;51.654;5.476;2024-02-14T04:31:40;9.30;;;3.27;;
72920;SDS011;61064;51.654;5.476;2024-02-14T04:34:05;7.67;;;3.07;;
72920;SDS011;61064;51.654;5.476;2024-02-14T04:36:33;11.57;;;3.40;;
72920;SDS011;61064;51.654;5.476;2024-02-14T04:39:00;9.25;;;3.70;;
72920;SDS011;61064;51.654;5.476;2024-02-14T04:41:28;10.57;;;4.00;;
72920;SDS011;61064;51.654;5.476;2024-02-14T04:43:57;8.67;;;3.33;;
72920;SDS011;61064;51.654;5.476;2024-02-14T04:46:22;9.60;;;3.42;;
72920;SDS011;61064;51.654;5.476;2024-02-14T04:48:47;11.53;;;3.83;;
72920;SDS011;61064;51.654;5.476;2024-02-14T04:51:13;9.17;;;3.80;;
72920;SDS011;61064;51.654;5.476;2024-02-14T04:53:38;10.70;;;3.77;;
72920;SDS011;61064;51.654;5.476;2024-02-14T04:56:04;10.40;;;3.90;;
72920;SDS011;61064;51.654;5.476;2024-02-14T04:58:29;8.87;;;3.73;;
72920;SDS011;61064;51.654;5.476;2024-02-14T05:01:04;10.40;;;3.60;;
72920;SDS011;61064;51.654;5.476;2024-02-14T05:03:29;9.13;;;3.60;;
72920;SDS011;61064;51.654;5.476;2024-02-14T05:05:54;10.43;;;3.50;;
72920;SDS011;61064;51.654;5.476;2024-02-14T05:08:26;8.83;;;3.70;;
72920;SDS011;61064;51.654;5.476;2024-02-14T05:10:51;9.50;;;3.65;;
72920;SDS011;61064;51.654;5.476;2024-02-14T05:13:16;9.50;;;3.37;;
72920;SDS011;61064;51.654;5.476;2024-02-14T05:15:42;10.60;;;3.77;;
72920;SDS011;61064;51.654;5.476;2024-02-14T05:18:07;11.98;;;4.25;;
72920;SDS011;61064;51.654;5.476;2024-02-14T05:20:33;11.17;;;3.77;;
72920;SDS011;61064;51.654;5.476;2024-02-14T05:22:58;9.77;;;4.27;;
72920;SDS011;61064;51.654;5.476;2024-02-14T05:25:23;9.37;;;4.07;;
72920;SDS011;61064;51.654;5.476;2024-02-14T05:27:49;10.93;;;3.80;;
72920;SDS011;61064;51.654;5.476;2024-02-14T05:30:17;9.60;;;3.90;;
72920;SDS011;61064;51.654;5.476;2024-02-14T05:32:42;10.10;;;4.10;;
72920;SDS011;61064;51.654;5.476;2024-02-14T05:35:07;10.33;;;3.90;;
72920;SDS011;61064;51.654;5.476;2024-02-14T05:37:34;11.70;;;4.25;;
72920;SDS011;61064;51.654;5.476;2024-02-14T05:40:01;8.80;;;4.03;;
72920;SDS011;61064;51.654;5.476;2024-02-14T05:42:27;10.40;;;4.47;;
72920;SDS011;61064;51.654;5.476;2024-02-14T05:44:53;10.33;;;4.20;;
72920;SDS011;61064;51.654;5.476;2024-02-14T05:47:21;8.45;;;4.07;;
72920;SDS011;61064;51.654;5.476;2024-02-14T05:49:46;12.80;;;4.67;;
72920;SDS011;61064;51.654;5.476;2024-02-14T05:52:12;9.30;;;3.77;;
72920;SDS011;61064;51.654;5.476;2024-02-14T05:54:37;9.67;;;4.10;;
72920;SDS011;61064;51.654;5.476;2024-02-14T05:57:03;9.40;;;4.10;;
72920;SDS011;61064;51.654;5.476;2024-02-14T05:59:29;9.40;;;4.05;;
72920;SDS011;61064;51.654;5.476;2024-02-14T06:01:57;10.10;;;3.97;;
72920;SDS011;61064;51.654;5.476;2024-02-14T06:04:28;9.65;;;3.90;;
72920;SDS011;61064;51.654;5.476;2024-02-14T06:06:53;10.40;;;4.00;;
72920;SDS011;61064;51.654;5.476;2024-02-14T06:09:21;9.27;;;4.10;;
72920;SDS011;61064;51.654;5.476;2024-02-14T06:11:50;8.40;;;3.88;;
72920;SDS011;61064;51.654;5.476;2024-02-14T06:14:15;11.68;;;4.25;;
72920;SDS011;61064;51.654;5.476;2024-02-14T06:16:41;11.97;;;4.17;;
72920;SDS011;61064;51.654;5.476;2024-02-14T06:19:06;8.90;;;4.00;;
72920;SDS011;61064;51.654;5.476;2024-02-14T06:21:32;10.53;;;4.20;;
72920;SDS011;61064;51.654;5.476;2024-02-14T06:23:57;11.95;;;4.47;;
72920;SDS011;61064;51.654;5.476;2024-02-14T06:26:23;10.67;;;4.10;;
72920;SDS011;61064;51.654;5.476;2024-02-14T06:28:49;9.85;;;4.25;;
72920;SDS011;61064;51.654;5.476;2024-02-14T06:31:19;8.95;;;4.25;;
72920;SDS011;61064;51.654;5.476;2024-02-14T06:33:45;10.60;;;4.75;;
72920;SDS011;61064;51.654;5.476;2024-02-14T06:36:11;11.07;;;4.60;;
72920;SDS011;61064;51.654;5.476;2024-02-14T06:38:36;11.53;;;5.07;;
72920;SDS011;61064;51.654;5.476;2024-02-14T06:41:01;11.00;;;4.67;;
72920;SDS011;61064;51.654;5.476;2024-02-14T06:43:27;10.97;;;5.03;;
72920;SDS011;61064;51.654;5.476;2024-02-14T06:45:55;11.83;;;4.87;;
72920;SDS011;61064;51.654;5.476;2024-02-14T06:48:20;11.30;;;4.90;;
72920;SDS011;61064;51.654;5.476;2024-02-14T06:50:52;11.25;;;5.45;;
72920;SDS011;61064;51.654;5.476;2024-02-14T06:53:18;14.27;;;5.63;;
72920;SDS011;61064;51.654;5.476;2024-02-14T06:55:43;12.27;;;5.33;;
72920;SDS011;61064;51.654;5.476;2024-02-14T06:58:09;14.00;;;5.50;;
72920;SDS011;61064;51.654;5.476;2024-02-14T07:00:34;11.43;;;5.43;;
72920;SDS011;61064;51.654;5.476;2024-02-14T07:02:59;13.35;;;5.50;;
72920;SDS011;61064;51.654;5.476;2024-02-14T07:05:26;11.40;;;5.53;;
72920;SDS011;61064;51.654;5.476;2024-02-14T07:07:52;14.15;;;5.20;;
72920;SDS011;61064;51.654;5.476;2024-02-14T07:10:18;11.30;;;5.23;;
72920;SDS011;61064;51.654;5.476;2024-02-14T07:12:43;14.87;;;5.50;;
72920;SDS011;61064;51.654;5.476;2024-02-14T07:15:08;12.23;;;5.40;;
72920;SDS011;61064;51.654;5.476;2024-02-14T07:17:34;11.17;;;5.10;;
72920;SDS011;61064;51.654;5.476;2024-02-14T07:20:00;11.50;;;5.05;;
72920;SDS011;61064;51.654;5.476;2024-02-14T07:22:26;12.50;;;5.30;;
72920;SDS011;61064;51.654;5.476;2024-02-14T07:24:52;11.50;;;5.03;;
72920;SDS011;61064;51.654;5.476;2024-02-14T07:27:18;12.53;;;5.17;;
72920;SDS011;61064;51.654;5.476;2024-02-14T07:29:46;14.48;;;5.15;;
72920;SDS011;61064;51.654;5.476;2024-02-14T07:32:11;12.40;;;5.40;;
72920;SDS011;61064;51.654;5.476;2024-02-14T07:34:40;15.40;;;5.77;;
72920;SDS011;61064;51.654;5.476;2024-02-14T07:37:06;12.90;;;5.38;;
72920;SDS011;61064;51.654;5.476;2024-02-14T07:39:36;11.30;;;5.38;;
72920;SDS011;61064;51.654;5.476;2024-02-14T07:42:02;11.47;;;5.23;;
72920;SDS011;61064;51.654;5.476;2024-02-14T07:44:28;12.32;;;5.38;;
72920;SDS011;61064;51.654;5.476;2024-02-14T07:46:53;11.40;;;6.00;;
72920;SDS011;61064;51.654;5.476;2024-02-14T07:49:21;14.13;;;6.00;;
72920;SDS011;61064;51.654;5.476;2024-02-14T07:51:47;13.03;;;5.90;;
72920;SDS011;61064;51.654;5.476;2024-02-14T07:54:12;14.33;;;6.30;;
72920;SDS011;61064;51.654;5.476;2024-02-14T07:56:38;14.30;;;6.30;;
72920;SDS011;61064;51.654;5.476;2024-02-14T07:59:04;18.13;;;7.17;;
72920;SDS011;61064;51.654;5.476;2024-02-14T08:01:30;12.70;;;6.45;;
72920;SDS011;61064;51.654;5.476;2024-02-14T08:03:57;13.88;;;6.43;;
72920;SDS011;61064;51.654;5.476;2024-02-14T08:06:23;15.15;;;5.93;;
72920;SDS011;61064;51.654;5.476;2024-02-14T08:08:49;15.20;;;6.47;;
72920;SDS011;61064;51.654;5.476;2024-02-14T08:11:18;15.23;;;6.50;;
72920;SDS011;61064;51.654;5.476;2024-02-14T08:13:44;15.27;;;6.30;;
72920;SDS011;61064;51.654;5.476;2024-02-14T08:16:09;18.08;;;7.25;;
72920;SDS011;61064;51.654;5.476;2024-02-14T08:18:35;14.30;;;6.50;;
72920;SDS011;61064;51.654;5.476;2024-02-14T08:21:01;14.70;;;7.03;;
72920;SDS011;61064;51.654;5.476;2024-02-14T08:23:26;16.20;;;6.23;;
72920;SDS011;61064;51.654;5.476;2024-02-14T08:25:51;16.27;;;6.30;;
72920;SDS011;61064;51.654;5.476;2024-02-14T08:28:17;13.70;;;6.63;;
72920;SDS011;61064;51.654;5.476;2024-02-14T08:30:43;16.13;;;6.75;;
72920;SDS011;61064;51.654;5.476;2024-02-14T08:33:09;17.50;;;6.50;;
72920;SDS011;61064;51.654;5.476;2024-02-14T08:35:35;17.20;;;6.93;;
72920;SDS011;61064;51.654;5.476;2024-02-14T08:38:01;15.70;;;7.20;;
72920;SDS011;61064;51.654;5.476;2024-02-14T08:40:26;13.93;;;6.33;;
72920;SDS011;61064;51.654;5.476;2024-02-14T08:42:54;17.97;;;6.43;;
72920;SDS011;61064;51.654;5.476;2024-02-14T08:45:19;14.77;;;6.72;;
72920;SDS011;61064;51.654;5.476;2024-02-14T08:47:45;15.33;;;6.27;;
72920;SDS011;61064;51.654;5.476;2024-02-14T08:50:10;16.35;;;6.63;;
72920;SDS011;61064;51.654;5.476;2024-02-14T08:52:37;16.30;;;6.70;;
72920;SDS011;61064;51.654;5.476;2024-02-14T08:55:03;15.35;;;7.13;;
72920;SDS011;61064;51.654;5.476;2024-02-14T08:57:33;19.73;;;6.90;;
72920;SDS011;61064;51.654;5.476;2024-02-14T09:00:00;19.10;;;7.05;;
72920;SDS011;61064;51.654;5.476;2024-02-14T09:02:27;16.67;;;6.67;;
72920;SDS011;61064;51.654;5.476;2024-02-14T09:04:53;14.48;;;6.63;;
72920;SDS011;61064;51.654;5.476;2024-02-14T09:07:18;18.03;;;6.53;;
72920;SDS011;61064;51.654;5.476;2024-02-14T09:09:44;13.97;;;6.77;;
72920;SDS011;61064;51.654;5.476;2024-02-14T09:12:11;17.48;;;6.80;;
72920;SDS011;61064;51.654;5.476;2024-02-14T09:14:36;13.93;;;6.30;;
72920;SDS011;61064;51.654;5.476;2024-02-14T09:17:02;17.20;;;6.23;;
72920;SDS011;61064;51.654;5.476;2024-02-14T09:19:27;15.77;;;6.40;;
72920;SDS011;61064;51.654;5.476;2024-02-14T09:21:52;18.90;;;6.72;;
72920;SDS011;61064;51.654;5.476;2024-02-14T09:24:18;15.17;;;6.53;;
72920;SDS011;61064;51.654;5.476;2024-02-14T09:26:43;11.77;;;5.63;;
72920;SDS011;61064;51.654;5.476;2024-02-14T09:29:09;15.07;;;5.30;;
72920;SDS011;61064;51.654;5.476;2024-02-14T09:31:37;13.55;;;5.70;;
72920;SDS011;61064;51.654;5.476;2024-02-14T09:34:02;14.37;;;5.07;;
72920;SDS011;61064;51.654;5.476;2024-02-14T09:36:28;13.18;;;5.25;;
72920;SDS011;61064;51.654;5.476;2024-02-14T09:38:54;12.10;;;5.37;;
72920;SDS011;61064;51.654;5.476;2024-02-14T09:41:36;14.63;;;5.20;;
72920;SDS011;61064;51.654;5.476;2024-02-14T09:44:03;11.77;;;4.93;;
72920;SDS011;61064;51.654;5.476;2024-02-14T09:46:28;12.55;;;5.32;;
72920;SDS011;61064;51.654;5.476;2024-02-14T09:48:58;14.50;;;5.93;;
72920;SDS011;61064;51.654;5.476;2024-02-14T09:51:24;17.07;;;6.33;;
72920;SDS011;61064;51.654;5.476;2024-02-14T09:53:50;12.32;;;5.20;;
72920;SDS011;61064;51.654;5.476;2024-02-14T09:56:19;15.38;;;5.50;;
72920;SDS011;61064;51.654;5.476;2024-02-14T09:58:47;15.13;;;5.30;;
72920;SDS011;61064;51.654;5.476;2024-02-14T10:01:24;14.45;;;5.43;;
72920;SDS011;61064;51.654;5.476;2024-02-14T10:03:50;14.43;;;5.57;;
72920;SDS011;61064;51.654;5.476;2024-02-14T10:06:19;12.85;;;5.25;;
72920;SDS011;61064;51.654;5.476;2024-02-14T10:08:49;12.07;;;5.10;;
72920;SDS011;61064;51.654;5.476;2024-02-14T10:11:18;13.35;;;5.70;;
72920;SDS011;61064;51.654;5.476;2024-02-14T10:13:46;13.13;;;5.45;;
72920;SDS011;61064;51.654;5.476;2024-02-14T10:16:19;12.27;;;5.75;;
72920;SDS011;61064;51.654;5.476;2024-02-14T10:18:45;13.30;;;5.27;;
72920;SDS011;61064;51.654;5.476;2024-02-14T10:21:14;14.60;;;5.68;;
72920;SDS011;61064;51.654;5.476;2024-02-14T10:23:43;14.38;;;5.60;;
72920;SDS011;61064;51.654;5.476;2024-02-14T10:26:10;13.63;;;5.78;;
72920;SDS011;61064;51.654;5.476;2024-02-14T10:28:36;13.77;;;5.40;;
72920;SDS011;61064;51.654;5.476;2024-02-14T10:31:01;15.30;;;5.40;;
72920;SDS011;61064;51.654;5.476;2024-02-14T10:33:27;12.63;;;5.73;;
72920;SDS011;61064;51.654;5.476;2024-02-14T10:35:54;13.90;;;5.45;;
72920;SDS011;61064;51.654;5.476;2024-02-14T10:38:22;13.15;;;5.10;;
72920;SDS011;61064;51.654;5.476;2024-02-14T10:40:48;12.25;;;5.40;;
72920;SDS011;61064;51.654;5.476;2024-02-14T10:43:13;13.37;;;5.00;;
72920;SDS011;61064;51.654;5.476;2024-02-14T10:45:39;14.98;;;5.30;;
72920;SDS011;61064;51.654;5.476;2024-02-14T10:48:05;10.43;;;4.40;;
72920;SDS011;61064;51.654;5.476;2024-02-14T10:50:35;14.05;;;4.90;;
72920;SDS011;61064;51.654;5.476;2024-02-14T10:53:03;12.63;;;5.32;;
72920;SDS011;61064;51.654;5.476;2024-02-14T10:55:31;11.13;;;4.53;;
72920;SDS011;61064;51.654;5.476;2024-02-14T10:57:58;13.48;;;5.20;;
72920;SDS011;61064;51.654;5.476;2024-02-14T11:00:27;12.20;;;5.00;;
72920;SDS011;61064;51.654;5.476;2024-02-14T11:02:53;12.77;;;5.20;;
72920;SDS011;61064;51.654;5.476;2024-02-14T11:05:19;15.20;;;5.28;;
72920;SDS011;61064;51.654;5.476;2024-02-14T11:07:49;12.07;;;5.45;;
72920;SDS011;61064;51.654;5.476;2024-02-14T11:10:17;10.52;;;4.78;;
72920;SDS011;61064;51.654;5.476;2024-02-14T11:12:43;10.70;;;4.60;;
72920;SDS011;61064;51.654;5.476;2024-02-14T11:15:10;13.35;;;5.18;;
72920;SDS011;61064;51.654;5.476;2024-02-14T11:17:43;10.68;;;5.22;;
72920;SDS011;61064;51.654;5.476;2024-02-14T11:20:16;11.68;;;4.63;;
72920;SDS011;61064;51.654;5.476;2024-02-14T11:22:53;9.27;;;4.40;;
72920;SDS011;61064;51.654;5.476;2024-02-14T11:25:28;11.00;;;4.60;;
72920;SDS011;61064;51.654;5.476;2024-02-14T11:27:57;12.07;;;4.80;;
72920;SDS011;61064;51.654;5.476;2024-02-14T11:30:30;9.75;;;4.72;;
72920;SDS011;61064;51.654;5.476;2024-02-14T11:33:15;10.18;;;4.50;;
72920;SDS011;61064;51.654;5.476;2024-02-14T11:35:46;14.07;;;5.07;;
72920;SDS011;61064;51.654;5.476;2024-02-14T11:38:15;10.23;;;4.07;;
72920;SDS011;61064;51.654;5.476;2024-02-14T11:40:40;9.43;;;4.47;;
72920;SDS011;61064;51.654;5.476;2024-02-14T11:43:11;9.88;;;3.72;;
72920;SDS011;61064;51.654;5.476;2024-02-14T11:45:41;8.23;;;3.70;;
72920;SDS011;61064;51.654;5.476;2024-02-14T11:48:13;8.43;;;3.60;;
72920;SDS011;61064;51.654;5.476;2024-02-14T11:50:40;8.55;;;3.50;;
72920;SDS011;61064;51.654;5.476;2024-02-14T11:53:06;9.20;;;3.80;;
72920;SDS011;61064;51.654;5.476;2024-02-14T11:55:35;9.23;;;3.45;;
72920;SDS011;61064;51.654;5.476;2024-02-14T11:58:05;7.65;;;3.35;;
72920;SDS011;61064;51.654;5.476;2024-02-14T12:00:36;8.50;;;3.33;;
72920;SDS011;61064;51.654;5.476;2024-02-14T12:03:06;9.70;;;3.88;;
72920;SDS011;61064;51.654;5.476;2024-02-14T12:05:32;8.57;;;3.50;;
72920;SDS011;61064;51.654;5.476;2024-02-14T12:07:59;7.90;;;3.38;;
72920;SDS011;61064;51.654;5.476;2024-02-14T12:10:25;9.20;;;3.63;;
72920;SDS011;61064;51.654;5.476;2024-02-14T12:12:52;8.93;;;3.70;;
72920;SDS011;61064;51.654;5.476;2024-02-14T12:15:17;8.23;;;3.60;;
72920;SDS011;61064;51.654;5.476;2024-02-14T12:17:42;9.77;;;3.80;;
72920;SDS011;61064;51.654;5.476;2024-02-14T12:20:12;8.32;;;4.00;;
72920;SDS011;61064;51.654;5.476;2024-02-14T12:22:39;8.50;;;3.70;;
72920;SDS011;61064;51.654;5.476;2024-02-14T12:25:08;8.68;;;3.97;;
72920;SDS011;61064;51.654;5.476;2024-02-14T12:27:36;9.77;;;4.25;;
72920;SDS011;61064;51.654;5.476;2024-02-14T12:30:08;9.35;;;3.80;;
72920;SDS011;61064;51.654;5.476;2024-02-14T12:32:35;9.13;;;3.95;;
72920;SDS011;61064;51.654;5.476;2024-02-14T12:35:00;8.47;;;3.70;;
72920;SDS011;61064;51.654;5.476;2024-02-14T12:37:26;9.87;;;4.10;;
72920;SDS011;61064;51.654;5.476;2024-02-14T12:39:51;8.93;;;3.97;;
72920;SDS011;61064;51.654;5.476;2024-02-14T12:42:17;9.60;;;4.10;;
72920;SDS011;61064;51.654;5.476;2024-02-14T12:44:50;10.57;;;3.85;;
72920;SDS011;61064;51.654;5.476;2024-02-14T12:47:18;8.60;;;3.90;;
72920;SDS011;61064;51.654;5.476;2024-02-14T12:49:45;8.57;;;3.63;;
72920;SDS011;61064;51.654;5.476;2024-02-14T12:52:12;7.63;;;3.50;;
72920;SDS011;61064;51.654;5.476;2024-02-14T12:54:37;7.77;;;3.07;;
72920;SDS011;61064;51.654;5.476;2024-02-14T12:57:03;9.00;;;3.97;;
72920;SDS011;61064;51.654;5.476;2024-02-14T12:59:29;8.82;;;3.58;;
72920;SDS011;61064;51.654;5.476;2024-02-14T13:01:54;8.30;;;3.40;;
72920;SDS011;61064;51.654;5.476;2024-02-14T13:04:20;8.73;;;3.27;;
72920;SDS011;61064;51.654;5.476;2024-02-14T13:06:46;8.10;;;3.17;;
72920;SDS011;61064;51.654;5.476;2024-02-14T13:09:12;8.48;;;3.28;;
72920;SDS011;61064;51.654;5.476;2024-02-14T13:11:39;8.02;;;3.50;;
72920;SDS011;61064;51.654;5.476;2024-02-14T13:14:07;8.77;;;3.40;;
72920;SDS011;61064;51.654;5.476;2024-02-14T13:16:33;8.00;;;3.20;;
72920;SDS011;61064;51.654;5.476;2024-02-14T13:18:59;8.30;;;3.30;;
72920;SDS011;61064;51.654;5.476;2024-02-14T13:21:24;6.77;;;3.00;;
72920;SDS011;61064;51.654;5.476;2024-02-14T13:23:50;8.33;;;3.30;;
72920;SDS011;61064;51.654;5.476;2024-02-14T13:26:15;7.10;;;2.80;;
72920;SDS011;61064;51.654;5.476;2024-02-14T13:28:43;7.53;;;3.13;;
72920;SDS011;61064;51.654;5.476;2024-02-14T13:31:09;7.78;;;3.20;;
72920;SDS011;61064;51.654;5.476;2024-02-14T13:33:35;7.50;;;3.20;;
72920;SDS011;61064;51.654;5.476;2024-02-14T13:36:01;7.43;;;2.90;;
72920;SDS011;61064;51.654;5.476;2024-02-14T13:38:26;7.27;;;2.90;;
72920;SDS011;61064;51.654;5.476;2024-02-14T13:40:52;7.00;;;3.10;;
72920;SDS011;61064;51.654;5.476;2024-02-14T13:43:18;6.85;;;2.70;;
72920;SDS011;61064;51.654;5.476;2024-02-14T13:45:44;7.90;;;2.87;;
72920;SDS011;61064;51.654;5.476;2024-02-14T13:48:10;8.77;;;2.97;;
72920;SDS011;61064;51.654;5.476;2024-02-14T13:50:36;7.97;;;3.30;;
72920;SDS011;61064;51.654;5.476;2024-02-14T13:53:03;6.50;;;2.80;;
72920;SDS011;61064;51.654;5.476;2024-02-14T13:55:28;8.27;;;2.67;;
72920;SDS011;61064;51.654;5.476;2024-02-14T13:57:54;7.87;;;3.00;;
72920;SDS011;61064;51.654;5.476;2024-02-14T14:00:19;7.13;;;3.03;;
72920;SDS011;61064;51.654;5.476;2024-02-14T14:02:45;7.25;;;2.90;;
72920;SDS011;61064;51.654;5.476;2024-02-14T14:05:11;7.37;;;2.73;;
72920;SDS011;61064;51.654;5.476;2024-02-14T14:07:40;9.60;;;3.10;;
72920;SDS011;61064;51.654;5.476;2024-02-14T14:10:06;8.00;;;2.97;;
72920;SDS011;61064;51.654;5.476;2024-02-14T14:12:34;7.87;;;2.87;;
72920;SDS011;61064;51.654;5.476;2024-02-14T14:15:00;7.68;;;2.95;;
72920;SDS011;61064;51.654;5.476;2024-02-14T14:17:26;7.00;;;3.00;;
72920;SDS011;61064;51.654;5.476;2024-02-14T14:19:52;7.03;;;3.17;;
72920;SDS011;61064;51.654;5.476;2024-02-14T14:22:18;7.78;;;3.25;;
72920;SDS011;61064;51.654;5.476;2024-02-14T14:24:46;8.53;;;3.53;;
72920;SDS011;61064;51.654;5.476;2024-02-14T14:27:15;8.35;;;3.55;;
72920;SDS011;61064;51.654;5.476;2024-02-14T14:29:41;8.05;;;3.30;;
72920;SDS011;61064;51.654;5.476;2024-02-14T14:32:08;7.72;;;3.42;;
72920;SDS011;61064;51.654;5.476;2024-02-14T14:34:34;8.53;;;3.77;;
72920;SDS011;61064;51.654;5.476;2024-02-14T14:36:59;8.73;;;3.75;;